sensor_id;sensor_type;location;lat;lon;timestamp;P1;durP1;ratioP1;P2;durP2;ratioP2
2992;SDS011;1506;48.932;9.478;2023-02-13T00:00:43;34.90;;;15.80;;
2992;SDS011;1506;48.932;9.478;2023-02-13T00:03:11;35.93;;;18.03;;
2992;SDS011;1506;48.932;9.478;2023-02-13T00:05:39;29.63;;;16.10;;
2992;SDS011;1506;48.932;9.478;2023-02-13T00:08:06;40.83;;;18.43;;
2992;SDS011;1506;48.932;9.478;2023-02-13T00:10:33;36.03;;;17.47;;
2992;SDS011;1506;48.932;9.478;2023-02-13T00:13:00;43.60;;;18.43;;
2992;SDS011;1506;48.932;9.478;2023-02-13T00:15:27;45.20;;;19.90;;
2992;SDS011;1506;48.932;9.478;2023-02-13T00:17:54;56.97;;;21.17;;
2992;SDS011;1506;48.932;9.478;2023-02-13T00:20:22;40.17;;;19.70;;
2992;SDS011;1506;48.932;9.478;2023-02-13T00:22:49;48.63;;;21.97;;
2992;SDS011;1506;48.932;9.478;2023-02-13T00:25:16;52.57;;;20.80;;
2992;SDS011;1506;48.932;9.478;2023-02-13T00:27:43;50.63;;;20.47;;
2992;SDS011;1506;48.932;9.478;2023-02-13T00:30:10;50.43;;;21.53;;
2992;SDS011;1506;48.932;9.478;2023-02-13T00:32:38;37.53;;;20.10;;
2992;SDS011;1506;48.932;9.478;2023-02-13T00:35:05;48.43;;;20.23;;
2992;SDS011;1506;48.932;9.478;2023-02-13T00:37:32;47.03;;;20.50;;
2992;SDS011;1506;48.932;9.478;2023-02-13T00:40:00;63.60;;;23.93;;
2992;SDS011;1506;48.932;9.478;2023-02-13T00:42:27;42.10;;;20.17;;
2992;SDS011;1506;48.932;9.478;2023-02-13T00:44:54;66.23;;;25.00;;
2992;SDS011;1506;48.932;9.478;2023-02-13T00:47:21;52.87;;;18.03;;
2992;SDS011;1506;48.932;9.478;2023-02-13T00:49:48;33.40;;;17.70;;
2992;SDS011;1506;48.932;9.478;2023-02-13T00:52:15;48.60;;;17.93;;
2992;SDS011;1506;48.932;9.478;2023-02-13T00:54:42;55.27;;;18.20;;
2992;SDS011;1506;48.932;9.478;2023-02-13T00:57:11;45.37;;;18.63;;
2992;SDS011;1506;48.932;9.478;2023-02-13T00:59:38;41.33;;;18.10;;
2992;SDS011;1506;48.932;9.478;2023-02-13T01:02:05;37.87;;;18.53;;
2992;SDS011;1506;48.932;9.478;2023-02-13T01:04:32;48.97;;;19.33;;
2992;SDS011;1506;48.932;9.478;2023-02-13T01:06:59;38.20;;;17.90;;
2992;SDS011;1506;48.932;9.478;2023-02-13T01:09:26;34.60;;;18.00;;
2992;SDS011;1506;48.932;9.478;2023-02-13T01:11:53;40.40;;;18.57;;
2992;SDS011;1506;48.932;9.478;2023-02-13T01:14:20;33.37;;;17.83;;
2992;SDS011;1506;48.932;9.478;2023-02-13T01:16:47;40.13;;;16.97;;
2992;SDS011;1506;48.932;9.478;2023-02-13T01:19:14;30.97;;;16.00;;
2992;SDS011;1506;48.932;9.478;2023-02-13T01:21:41;28.20;;;15.37;;
2992;SDS011;1506;48.932;9.478;2023-02-13T01:24:09;29.87;;;15.50;;
2992;SDS011;1506;48.932;9.478;2023-02-13T01:26:36;30.13;;;15.20;;
2992;SDS011;1506;48.932;9.478;2023-02-13T01:29:03;33.00;;;16.23;;
2992;SDS011;1506;48.932;9.478;2023-02-13T01:31:31;40.83;;;15.00;;
2992;SDS011;1506;48.932;9.478;2023-02-13T01:33:58;40.20;;;16.40;;
2992;SDS011;1506;48.932;9.478;2023-02-13T01:36:25;29.00;;;15.50;;
2992;SDS011;1506;48.932;9.478;2023-02-13T01:38:57;42.80;;;16.93;;
2992;SDS011;1506;48.932;9.478;2023-02-13T01:41:25;34.33;;;15.90;;
2992;SDS011;1506;48.932;9.478;2023-02-13T01:43:56;35.33;;;14.83;;
2992;SDS011;1506;48.932;9.478;2023-02-13T01:46:59;36.60;;;18.23;;
2992;SDS011;1506;48.932;9.478;2023-02-13T01:49:20;45.83;;;21.07;;
2992;SDS011;1506;48.932;9.478;2023-02-13T01:51:51;39.67;;;19.17;;
2992;SDS011;1506;48.932;9.478;2023-02-13T01:54:22;45.97;;;18.90;;
2992;SDS011;1506;48.932;9.478;2023-02-13T01:56:59;37.37;;;18.90;;
2992;SDS011;1506;48.932;9.478;2023-02-13T01:59:51;43.43;;;19.37;;
2992;SDS011;1506;48.932;9.478;2023-02-13T02:02:25;43.40;;;18.20;;
2992;SDS011;1506;48.932;9.478;2023-02-13T02:04:58;40.30;;;15.87;;
2992;SDS011;1506;48.932;9.478;2023-02-13T02:07:26;37.40;;;17.70;;
2992;SDS011;1506;48.932;9.478;2023-02-13T02:10:03;35.97;;;17.27;;
2992;SDS011;1506;48.932;9.478;2023-02-13T02:12:45;42.97;;;18.10;;
2992;SDS011;1506;48.932;9.478;2023-02-13T02:15:19;43.37;;;17.57;;
2992;SDS011;1506;48.932;9.478;2023-02-13T02:17:47;50.60;;;20.17;;
2992;SDS011;1506;48.932;9.478;2023-02-13T02:26:22;39.77;;;20.57;;
2992;SDS011;1506;48.932;9.478;2023-02-13T02:32:16;39.00;;;17.73;;
2992;SDS011;1506;48.932;9.478;2023-02-13T02:35:02;41.53;;;19.60;;
2992;SDS011;1506;48.932;9.478;2023-02-13T02:41:56;40.30;;;17.50;;
2992;SDS011;1506;48.932;9.478;2023-02-13T02:44:16;37.40;;;17.53;;
2992;SDS011;1506;48.932;9.478;2023-02-13T02:46:57;38.07;;;18.10;;
2992;SDS011;1506;48.932;9.478;2023-02-13T02:53:30;36.23;;;15.57;;
2992;SDS011;1506;48.932;9.478;2023-02-13T02:56:24;40.03;;;19.20;;
2992;SDS011;1506;48.932;9.478;2023-02-13T02:59:11;34.00;;;17.17;;
2992;SDS011;1506;48.932;9.478;2023-02-13T03:02:00;45.23;;;18.87;;
2992;SDS011;1506;48.932;9.478;2023-02-13T03:04:50;39.40;;;17.23;;
2992;SDS011;1506;48.932;9.478;2023-02-13T03:07:38;37.40;;;16.40;;
2992;SDS011;1506;48.932;9.478;2023-02-13T03:10:14;46.77;;;19.20;;
2992;SDS011;1506;48.932;9.478;2023-02-13T03:13:17;38.60;;;17.57;;
2992;SDS011;1506;48.932;9.478;2023-02-13T03:16:03;35.83;;;17.67;;
2992;SDS011;1506;48.932;9.478;2023-02-13T03:18:50;36.97;;;20.30;;
2992;SDS011;1506;48.932;9.478;2023-02-13T03:21:47;34.93;;;18.37;;
2992;SDS011;1506;48.932;9.478;2023-02-13T03:24:52;38.07;;;18.80;;
2992;SDS011;1506;48.932;9.478;2023-02-13T03:36:16;45.13;;;19.27;;
2992;SDS011;1506;48.932;9.478;2023-02-13T03:39:15;46.80;;;21.37;;
2992;SDS011;1506;48.932;9.478;2023-02-13T03:45:06;78.03;;;24.30;;
2992;SDS011;1506;48.932;9.478;2023-02-13T03:48:03;51.30;;;18.03;;
2992;SDS011;1506;48.932;9.478;2023-02-13T03:50:35;52.53;;;21.63;;
2992;SDS011;1506;48.932;9.478;2023-02-13T03:53:09;31.33;;;17.30;;
2992;SDS011;1506;48.932;9.478;2023-02-13T03:55:42;33.63;;;18.43;;
2992;SDS011;1506;48.932;9.478;2023-02-13T03:58:34;41.80;;;18.40;;
2992;SDS011;1506;48.932;9.478;2023-02-13T04:01:25;70.60;;;19.83;;
2992;SDS011;1506;48.932;9.478;2023-02-13T04:06:59;44.30;;;20.23;;
2992;SDS011;1506;48.932;9.478;2023-02-13T04:09:34;47.07;;;19.80;;
2992;SDS011;1506;48.932;9.478;2023-02-13T04:12:16;60.07;;;21.80;;
2992;SDS011;1506;48.932;9.478;2023-02-13T04:14:49;49.60;;;20.23;;
2992;SDS011;1506;48.932;9.478;2023-02-13T04:17:26;58.00;;;20.30;;
2992;SDS011;1506;48.932;9.478;2023-02-13T04:20:02;76.87;;;20.90;;
2992;SDS011;1506;48.932;9.478;2023-02-13T04:22:30;66.10;;;21.77;;
2992;SDS011;1506;48.932;9.478;2023-02-13T04:24:57;64.90;;;21.07;;
2992;SDS011;1506;48.932;9.478;2023-02-13T04:27:24;78.07;;;24.67;;
2992;SDS011;1506;48.932;9.478;2023-02-13T04:29:53;63.60;;;21.63;;
2992;SDS011;1506;48.932;9.478;2023-02-13T04:32:20;82.17;;;22.47;;
2992;SDS011;1506;48.932;9.478;2023-02-13T04:34:47;69.70;;;21.57;;
2992;SDS011;1506;48.932;9.478;2023-02-13T04:37:14;54.20;;;21.67;;
2992;SDS011;1506;48.932;9.478;2023-02-13T04:39:41;94.23;;;23.30;;
2992;SDS011;1506;48.932;9.478;2023-02-13T04:42:08;77.03;;;24.07;;
2992;SDS011;1506;48.932;9.478;2023-02-13T04:44:35;69.00;;;23.80;;
2992;SDS011;1506;48.932;9.478;2023-02-13T04:47:02;63.23;;;22.70;;
2992;SDS011;1506;48.932;9.478;2023-02-13T04:49:29;91.67;;;26.27;;
2992;SDS011;1506;48.932;9.478;2023-02-13T04:51:56;63.27;;;21.30;;
2992;SDS011;1506;48.932;9.478;2023-02-13T04:54:23;72.77;;;22.70;;
2992;SDS011;1506;48.932;9.478;2023-02-13T04:56:50;57.20;;;23.60;;
2992;SDS011;1506;48.932;9.478;2023-02-13T04:59:17;48.83;;;22.17;;
2992;SDS011;1506;48.932;9.478;2023-02-13T05:01:44;53.10;;;21.00;;
2992;SDS011;1506;48.932;9.478;2023-02-13T05:04:11;39.13;;;21.40;;
2992;SDS011;1506;48.932;9.478;2023-02-13T05:06:41;51.03;;;21.20;;
2992;SDS011;1506;48.932;9.478;2023-02-13T05:09:08;57.23;;;24.70;;
2992;SDS011;1506;48.932;9.478;2023-02-13T05:11:36;55.70;;;20.90;;
2992;SDS011;1506;48.932;9.478;2023-02-13T05:14:03;58.47;;;22.20;;
2992;SDS011;1506;48.932;9.478;2023-02-13T05:16:30;53.23;;;21.17;;
2992;SDS011;1506;48.932;9.478;2023-02-13T05:18:57;50.03;;;20.77;;
2992;SDS011;1506;48.932;9.478;2023-02-13T05:21:24;52.47;;;22.03;;
2992;SDS011;1506;48.932;9.478;2023-02-13T05:24:09;68.60;;;24.00;;
2992;SDS011;1506;48.932;9.478;2023-02-13T05:26:36;66.53;;;24.67;;
2992;SDS011;1506;48.932;9.478;2023-02-13T05:29:03;62.50;;;20.80;;
2992;SDS011;1506;48.932;9.478;2023-02-13T05:31:51;61.87;;;22.07;;
2992;SDS011;1506;48.932;9.478;2023-02-13T05:34:21;63.50;;;24.70;;
2992;SDS011;1506;48.932;9.478;2023-02-13T05:36:52;70.97;;;24.40;;
2992;SDS011;1506;48.932;9.478;2023-02-13T05:39:19;59.93;;;22.83;;
2992;SDS011;1506;48.932;9.478;2023-02-13T05:41:46;87.53;;;24.30;;
2992;SDS011;1506;48.932;9.478;2023-02-13T05:44:14;67.33;;;22.57;;
2992;SDS011;1506;48.932;9.478;2023-02-13T05:46:42;80.67;;;25.97;;
2992;SDS011;1506;48.932;9.478;2023-02-13T05:49:10;71.60;;;23.73;;
2992;SDS011;1506;48.932;9.478;2023-02-13T05:51:39;63.23;;;22.77;;
2992;SDS011;1506;48.932;9.478;2023-02-13T05:54:07;59.40;;;24.10;;
2992;SDS011;1506;48.932;9.478;2023-02-13T05:56:34;47.97;;;23.37;;
2992;SDS011;1506;48.932;9.478;2023-02-13T05:59:01;42.03;;;17.90;;
2992;SDS011;1506;48.932;9.478;2023-02-13T06:01:29;41.67;;;17.80;;
2992;SDS011;1506;48.932;9.478;2023-02-13T06:03:56;53.93;;;21.60;;
2992;SDS011;1506;48.932;9.478;2023-02-13T06:06:25;47.93;;;21.00;;
2992;SDS011;1506;48.932;9.478;2023-02-13T06:08:53;54.67;;;22.43;;
2992;SDS011;1506;48.932;9.478;2023-02-13T06:11:20;74.13;;;27.30;;
2992;SDS011;1506;48.932;9.478;2023-02-13T06:13:47;80.90;;;27.43;;
2992;SDS011;1506;48.932;9.478;2023-02-13T06:16:14;74.67;;;27.73;;
2992;SDS011;1506;48.932;9.478;2023-02-13T06:18:41;77.90;;;32.00;;
2992;SDS011;1506;48.932;9.478;2023-02-13T06:21:08;85.43;;;28.10;;
2992;SDS011;1506;48.932;9.478;2023-02-13T06:23:35;74.57;;;25.43;;
2992;SDS011;1506;48.932;9.478;2023-02-13T06:26:03;82.77;;;29.87;;
2992;SDS011;1506;48.932;9.478;2023-02-13T06:28:32;70.53;;;25.50;;
2992;SDS011;1506;48.932;9.478;2023-02-13T06:31:00;52.40;;;20.87;;
2992;SDS011;1506;48.932;9.478;2023-02-13T06:33:27;73.87;;;22.80;;
2992;SDS011;1506;48.932;9.478;2023-02-13T06:35:54;76.23;;;23.70;;
2992;SDS011;1506;48.932;9.478;2023-02-13T06:38:22;71.43;;;25.73;;
2992;SDS011;1506;48.932;9.478;2023-02-13T06:40:49;57.77;;;23.60;;
2992;SDS011;1506;48.932;9.478;2023-02-13T06:43:17;65.47;;;25.43;;
2992;SDS011;1506;48.932;9.478;2023-02-13T06:45:44;60.43;;;23.63;;
2992;SDS011;1506;48.932;9.478;2023-02-13T06:48:12;56.50;;;22.70;;
2992;SDS011;1506;48.932;9.478;2023-02-13T06:50:39;67.80;;;24.87;;
2992;SDS011;1506;48.932;9.478;2023-02-13T06:53:07;62.53;;;23.27;;
2992;SDS011;1506;48.932;9.478;2023-02-13T06:55:34;61.73;;;23.80;;
2992;SDS011;1506;48.932;9.478;2023-02-13T06:58:02;71.33;;;24.10;;
2992;SDS011;1506;48.932;9.478;2023-02-13T07:00:29;53.80;;;23.63;;
2992;SDS011;1506;48.932;9.478;2023-02-13T07:03:03;49.70;;;23.37;;
2992;SDS011;1506;48.932;9.478;2023-02-13T07:05:32;54.13;;;22.63;;
2992;SDS011;1506;48.932;9.478;2023-02-13T07:07:59;51.53;;;22.70;;
2992;SDS011;1506;48.932;9.478;2023-02-13T07:10:26;68.00;;;26.13;;
2992;SDS011;1506;48.932;9.478;2023-02-13T07:12:53;73.47;;;30.07;;
2992;SDS011;1506;48.932;9.478;2023-02-13T07:15:31;62.83;;;26.97;;
2992;SDS011;1506;48.932;9.478;2023-02-13T07:18:02;60.40;;;22.00;;
2992;SDS011;1506;48.932;9.478;2023-02-13T07:20:30;60.53;;;26.17;;
2992;SDS011;1506;48.932;9.478;2023-02-13T07:23:01;56.37;;;25.53;;
2992;SDS011;1506;48.932;9.478;2023-02-13T07:25:30;69.40;;;26.40;;
2992;SDS011;1506;48.932;9.478;2023-02-13T07:28:01;73.80;;;23.60;;
2992;SDS011;1506;48.932;9.478;2023-02-13T07:30:32;69.03;;;26.17;;
2992;SDS011;1506;48.932;9.478;2023-02-13T07:33:01;68.07;;;26.00;;
2992;SDS011;1506;48.932;9.478;2023-02-13T07:35:29;69.00;;;24.57;;
2992;SDS011;1506;48.932;9.478;2023-02-13T07:37:57;69.13;;;27.10;;
2992;SDS011;1506;48.932;9.478;2023-02-13T07:40:26;86.47;;;27.00;;
2992;SDS011;1506;48.932;9.478;2023-02-13T07:42:53;68.90;;;25.47;;
2992;SDS011;1506;48.932;9.478;2023-02-13T07:45:21;62.13;;;26.10;;
2992;SDS011;1506;48.932;9.478;2023-02-13T07:47:48;74.93;;;27.60;;
2992;SDS011;1506;48.932;9.478;2023-02-13T07:50:15;68.37;;;27.27;;
2992;SDS011;1506;48.932;9.478;2023-02-13T07:52:42;65.00;;;25.20;;
2992;SDS011;1506;48.932;9.478;2023-02-13T07:55:09;71.20;;;27.90;;
2992;SDS011;1506;48.932;9.478;2023-02-13T07:57:37;73.70;;;32.40;;
2992;SDS011;1506;48.932;9.478;2023-02-13T08:00:04;94.63;;;33.90;;
2992;SDS011;1506;48.932;9.478;2023-02-13T08:02:36;83.60;;;33.67;;
2992;SDS011;1506;48.932;9.478;2023-02-13T08:05:04;102.53;;;34.93;;
2992;SDS011;1506;48.932;9.478;2023-02-13T08:07:32;83.20;;;33.40;;
2992;SDS011;1506;48.932;9.478;2023-02-13T08:09:59;73.20;;;29.83;;
2992;SDS011;1506;48.932;9.478;2023-02-13T08:12:45;80.07;;;31.20;;
2992;SDS011;1506;48.932;9.478;2023-02-13T08:15:12;73.47;;;25.80;;
2992;SDS011;1506;48.932;9.478;2023-02-13T08:17:41;52.33;;;24.30;;
2992;SDS011;1506;48.932;9.478;2023-02-13T08:20:08;41.77;;;19.63;;
2992;SDS011;1506;48.932;9.478;2023-02-13T08:22:36;43.07;;;20.63;;
2992;SDS011;1506;48.932;9.478;2023-02-13T08:25:05;38.10;;;18.47;;
2992;SDS011;1506;48.932;9.478;2023-02-13T08:27:32;40.70;;;17.07;;
2992;SDS011;1506;48.932;9.478;2023-02-13T08:29:59;29.50;;;16.17;;
2992;SDS011;1506;48.932;9.478;2023-02-13T08:32:30;33.67;;;14.70;;
2992;SDS011;1506;48.932;9.478;2023-02-13T08:35:16;29.27;;;15.37;;
2992;SDS011;1506;48.932;9.478;2023-02-13T08:37:43;31.63;;;15.93;;
2992;SDS011;1506;48.932;9.478;2023-02-13T08:40:12;23.70;;;14.73;;
2992;SDS011;1506;48.932;9.478;2023-02-13T08:42:40;25.30;;;15.70;;
2992;SDS011;1506;48.932;9.478;2023-02-13T08:45:07;24.70;;;14.40;;
2992;SDS011;1506;48.932;9.478;2023-02-13T08:47:37;26.60;;;15.70;;
2992;SDS011;1506;48.932;9.478;2023-02-13T08:50:05;33.73;;;15.70;;
2992;SDS011;1506;48.932;9.478;2023-02-13T08:52:33;26.73;;;14.53;;
2992;SDS011;1506;48.932;9.478;2023-02-13T08:55:00;25.30;;;14.00;;
2992;SDS011;1506;48.932;9.478;2023-02-13T08:57:28;28.20;;;14.10;;
2992;SDS011;1506;48.932;9.478;2023-02-13T08:59:56;17.77;;;12.17;;
2992;SDS011;1506;48.932;9.478;2023-02-13T09:02:23;32.03;;;15.20;;
2992;SDS011;1506;48.932;9.478;2023-02-13T09:04:50;22.87;;;14.63;;
2992;SDS011;1506;48.932;9.478;2023-02-13T09:07:17;18.60;;;13.00;;
2992;SDS011;1506;48.932;9.478;2023-02-13T09:09:44;19.50;;;12.77;;
2992;SDS011;1506;48.932;9.478;2023-02-13T09:12:11;16.90;;;11.90;;
2992;SDS011;1506;48.932;9.478;2023-02-13T09:14:38;17.00;;;11.60;;
2992;SDS011;1506;48.932;9.478;2023-02-13T09:17:06;18.33;;;12.07;;
2992;SDS011;1506;48.932;9.478;2023-02-13T09:19:33;20.60;;;12.37;;
2992;SDS011;1506;48.932;9.478;2023-02-13T09:22:00;18.83;;;12.30;;
2992;SDS011;1506;48.932;9.478;2023-02-13T09:24:27;24.53;;;12.53;;
2992;SDS011;1506;48.932;9.478;2023-02-13T09:26:54;17.90;;;13.13;;
2992;SDS011;1506;48.932;9.478;2023-02-13T09:29:22;16.97;;;11.90;;
2992;SDS011;1506;48.932;9.478;2023-02-13T09:31:49;14.33;;;10.67;;
2992;SDS011;1506;48.932;9.478;2023-02-13T09:34:16;17.37;;;11.53;;
2992;SDS011;1506;48.932;9.478;2023-02-13T09:36:43;16.17;;;11.40;;
2992;SDS011;1506;48.932;9.478;2023-02-13T09:39:10;16.87;;;9.70;;
2992;SDS011;1506;48.932;9.478;2023-02-13T09:41:38;15.80;;;10.07;;
2992;SDS011;1506;48.932;9.478;2023-02-13T09:44:18;9.13;;;7.30;;
2992;SDS011;1506;48.932;9.478;2023-02-13T09:49:46;9.23;;;8.37;;
2992;SDS011;1506;48.932;9.478;2023-02-13T09:52:18;13.43;;;8.50;;
2992;SDS011;1506;48.932;9.478;2023-02-13T09:54:45;12.63;;;8.77;;
2992;SDS011;1506;48.932;9.478;2023-02-13T09:59:55;10.70;;;9.20;;
2992;SDS011;1506;48.932;9.478;2023-02-13T10:03:00;16.23;;;9.50;;
2992;SDS011;1506;48.932;9.478;2023-02-13T10:05:51;9.47;;;8.10;;
2992;SDS011;1506;48.932;9.478;2023-02-13T10:09:03;10.90;;;9.30;;
2992;SDS011;1506;48.932;9.478;2023-02-13T10:14:10;10.30;;;8.27;;
2992;SDS011;1506;48.932;9.478;2023-02-13T10:22:22;9.20;;;8.40;;
2992;SDS011;1506;48.932;9.478;2023-02-13T10:25:03;9.33;;;8.40;;
2992;SDS011;1506;48.932;9.478;2023-02-13T10:27:43;9.10;;;8.40;;
2992;SDS011;1506;48.932;9.478;2023-02-13T10:35:47;9.27;;;8.30;;
2992;SDS011;1506;48.932;9.478;2023-02-13T10:38:32;13.30;;;10.30;;
2992;SDS011;1506;48.932;9.478;2023-02-13T10:41:05;9.17;;;8.23;;
2992;SDS011;1506;48.932;9.478;2023-02-13T11:00:46;9.23;;;8.30;;
2992;SDS011;1506;48.932;9.478;2023-02-13T11:03:23;9.30;;;8.50;;
2992;SDS011;1506;48.932;9.478;2023-02-13T11:05:52;10.20;;;9.20;;
2992;SDS011;1506;48.932;9.478;2023-02-13T11:08:21;9.17;;;8.20;;
2992;SDS011;1506;48.932;9.478;2023-02-13T11:10:56;11.00;;;8.27;;
2992;SDS011;1506;48.932;9.478;2023-02-13T11:13:24;8.40;;;7.57;;
2992;SDS011;1506;48.932;9.478;2023-02-13T11:15:57;9.67;;;8.67;;
2992;SDS011;1506;48.932;9.478;2023-02-13T11:18:26;9.63;;;8.60;;
2992;SDS011;1506;48.932;9.478;2023-02-13T11:21:00;8.77;;;7.87;;
2992;SDS011;1506;48.932;9.478;2023-02-13T11:25:58;8.73;;;8.00;;
2992;SDS011;1506;48.932;9.478;2023-02-13T11:28:26;8.97;;;7.93;;
2992;SDS011;1506;48.932;9.478;2023-02-13T11:31:09;7.97;;;7.27;;
2992;SDS011;1506;48.932;9.478;2023-02-13T11:33:38;9.43;;;8.63;;
2992;SDS011;1506;48.932;9.478;2023-02-13T11:36:07;9.17;;;8.37;;
2992;SDS011;1506;48.932;9.478;2023-02-13T11:38:36;10.07;;;8.47;;
2992;SDS011;1506;48.932;9.478;2023-02-13T11:43:47;8.60;;;7.80;;
2992;SDS011;1506;48.932;9.478;2023-02-13T11:46:20;8.43;;;7.70;;
2992;SDS011;1506;48.932;9.478;2023-02-13T11:48:55;9.37;;;8.47;;
2992;SDS011;1506;48.932;9.478;2023-02-13T11:51:42;7.73;;;7.23;;
2992;SDS011;1506;48.932;9.478;2023-02-13T11:57:22;8.60;;;7.53;;
2992;SDS011;1506;48.932;9.478;2023-02-13T11:59:57;11.17;;;7.77;;
2992;SDS011;1506;48.932;9.478;2023-02-13T12:02:30;9.37;;;8.67;;
2992;SDS011;1506;48.932;9.478;2023-02-13T12:07:47;11.50;;;8.07;;
2992;SDS011;1506;48.932;9.478;2023-02-13T12:15:48;8.33;;;7.53;;
2992;SDS011;1506;48.932;9.478;2023-02-13T12:26:44;8.27;;;7.27;;
2992;SDS011;1506;48.932;9.478;2023-02-13T12:38:27;8.30;;;7.60;;
2992;SDS011;1506;48.932;9.478;2023-02-13T12:41:08;8.00;;;7.20;;
2992;SDS011;1506;48.932;9.478;2023-02-13T12:46:25;7.60;;;7.00;;
2992;SDS011;1506;48.932;9.478;2023-02-13T12:55:14;7.10;;;6.57;;
2992;SDS011;1506;48.932;9.478;2023-02-13T13:18:23;10.80;;;9.20;;
2992;SDS011;1506;48.932;9.478;2023-02-13T13:28:52;18.90;;;8.10;;
2992;SDS011;1506;48.932;9.478;2023-02-13T13:31:21;13.87;;;9.93;;
2992;SDS011;1506;48.932;9.478;2023-02-13T13:33:51;6.93;;;6.43;;
2992;SDS011;1506;48.932;9.478;2023-02-13T13:39:17;6.50;;;5.93;;
2992;SDS011;1506;48.932;9.478;2023-02-13T13:50:17;7.50;;;6.90;;
2992;SDS011;1506;48.932;9.478;2023-02-13T14:03:46;7.80;;;7.07;;
2992;SDS011;1506;48.932;9.478;2023-02-13T14:06:19;8.00;;;6.80;;
2992;SDS011;1506;48.932;9.478;2023-02-13T14:08:55;7.20;;;6.60;;
2992;SDS011;1506;48.932;9.478;2023-02-13T14:11:32;5.57;;;5.23;;
2992;SDS011;1506;48.932;9.478;2023-02-13T14:14:00;8.10;;;7.23;;
2992;SDS011;1506;48.932;9.478;2023-02-13T14:16:48;6.63;;;6.10;;
2992;SDS011;1506;48.932;9.478;2023-02-13T14:19:25;7.67;;;6.87;;
2992;SDS011;1506;48.932;9.478;2023-02-13T14:22:41;7.20;;;6.50;;
2992;SDS011;1506;48.932;9.478;2023-02-13T14:24:51;6.47;;;5.67;;
2992;SDS011;1506;48.932;9.478;2023-02-13T14:27:23;6.93;;;6.37;;
2992;SDS011;1506;48.932;9.478;2023-02-13T14:29:59;6.80;;;6.20;;
2992;SDS011;1506;48.932;9.478;2023-02-13T14:34:58;7.07;;;6.40;;
2992;SDS011;1506;48.932;9.478;2023-02-13T14:37:49;6.60;;;5.93;;
2992;SDS011;1506;48.932;9.478;2023-02-13T14:42:50;5.47;;;5.07;;
2992;SDS011;1506;48.932;9.478;2023-02-13T14:45:26;7.73;;;6.10;;
2992;SDS011;1506;48.932;9.478;2023-02-13T14:48:01;7.23;;;5.60;;
2992;SDS011;1506;48.932;9.478;2023-02-13T14:50:44;6.07;;;5.40;;
2992;SDS011;1506;48.932;9.478;2023-02-13T14:53:15;5.20;;;4.90;;
2992;SDS011;1506;48.932;9.478;2023-02-13T14:56:05;9.57;;;6.80;;
2992;SDS011;1506;48.932;9.478;2023-02-13T14:58:35;6.30;;;5.80;;
2992;SDS011;1506;48.932;9.478;2023-02-13T15:03:58;6.50;;;5.90;;
2992;SDS011;1506;48.932;9.478;2023-02-13T15:06:41;7.10;;;6.40;;
2992;SDS011;1506;48.932;9.478;2023-02-13T15:09:26;6.90;;;6.00;;
2992;SDS011;1506;48.932;9.478;2023-02-13T15:11:58;5.47;;;5.07;;
2992;SDS011;1506;48.932;9.478;2023-02-13T15:14:32;7.30;;;6.73;;
2992;SDS011;1506;48.932;9.478;2023-02-13T15:19:44;10.10;;;5.60;;
2992;SDS011;1506;48.932;9.478;2023-02-13T15:22:16;7.73;;;6.93;;
2992;SDS011;1506;48.932;9.478;2023-02-13T15:24:47;8.57;;;5.97;;
2992;SDS011;1506;48.932;9.478;2023-02-13T15:27:16;6.60;;;5.87;;
2992;SDS011;1506;48.932;9.478;2023-02-13T15:29:52;6.57;;;5.73;;
2992;SDS011;1506;48.932;9.478;2023-02-13T15:32:25;4.43;;;4.10;;
2992;SDS011;1506;48.932;9.478;2023-02-13T15:34:57;8.73;;;6.40;;
2992;SDS011;1506;48.932;9.478;2023-02-13T15:37:28;5.80;;;4.70;;
2992;SDS011;1506;48.932;9.478;2023-02-13T15:40:11;10.23;;;5.93;;
2992;SDS011;1506;48.932;9.478;2023-02-13T15:42:40;12.13;;;7.03;;
2992;SDS011;1506;48.932;9.478;2023-02-13T15:45:15;8.43;;;6.10;;
2992;SDS011;1506;48.932;9.478;2023-02-13T15:47:43;7.90;;;7.10;;
2992;SDS011;1506;48.932;9.478;2023-02-13T15:50:23;5.90;;;5.30;;
2992;SDS011;1506;48.932;9.478;2023-02-13T15:52:57;9.10;;;6.07;;
2992;SDS011;1506;48.932;9.478;2023-02-13T15:55:30;18.43;;;7.47;;
2992;SDS011;1506;48.932;9.478;2023-02-13T15:57:59;9.90;;;7.30;;
2992;SDS011;1506;48.932;9.478;2023-02-13T16:00:32;8.07;;;7.37;;
2992;SDS011;1506;48.932;9.478;2023-02-13T16:03:01;12.33;;;7.30;;
2992;SDS011;1506;48.932;9.478;2023-02-13T16:05:32;8.43;;;7.63;;
2992;SDS011;1506;48.932;9.478;2023-02-13T16:21:56;12.90;;;7.00;;
2992;SDS011;1506;48.932;9.478;2023-02-13T16:24:44;23.97;;;11.83;;
2992;SDS011;1506;48.932;9.478;2023-02-13T16:27:14;50.83;;;21.13;;
2992;SDS011;1506;48.932;9.478;2023-02-13T16:29:52;48.33;;;16.80;;
2992;SDS011;1506;48.932;9.478;2023-02-13T16:32:32;49.43;;;17.70;;
2992;SDS011;1506;48.932;9.478;2023-02-13T16:35:16;24.40;;;14.60;;
2992;SDS011;1506;48.932;9.478;2023-02-13T16:37:51;68.40;;;20.07;;
2992;SDS011;1506;48.932;9.478;2023-02-13T16:53:56;32.67;;;17.43;;
2992;SDS011;1506;48.932;9.478;2023-02-13T16:56:24;16.50;;;10.27;;
2992;SDS011;1506;48.932;9.478;2023-02-13T16:59:02;22.50;;;12.47;;
2992;SDS011;1506;48.932;9.478;2023-02-13T17:01:31;18.67;;;11.47;;
2992;SDS011;1506;48.932;9.478;2023-02-13T17:03:58;21.73;;;11.90;;
2992;SDS011;1506;48.932;9.478;2023-02-13T17:06:26;31.17;;;18.20;;
2992;SDS011;1506;48.932;9.478;2023-02-13T17:08:53;22.40;;;12.43;;
2992;SDS011;1506;48.932;9.478;2023-02-13T17:11:21;19.93;;;10.63;;
2992;SDS011;1506;48.932;9.478;2023-02-13T17:13:48;21.90;;;12.93;;
2992;SDS011;1506;48.932;9.478;2023-02-13T17:16:16;19.83;;;12.00;;
2992;SDS011;1506;48.932;9.478;2023-02-13T17:18:43;23.90;;;12.30;;
2992;SDS011;1506;48.932;9.478;2023-02-13T17:21:11;22.27;;;11.13;;
2992;SDS011;1506;48.932;9.478;2023-02-13T17:23:39;21.00;;;12.33;;
2992;SDS011;1506;48.932;9.478;2023-02-13T17:26:07;18.83;;;11.30;;
2992;SDS011;1506;48.932;9.478;2023-02-13T17:28:34;15.67;;;10.90;;
2992;SDS011;1506;48.932;9.478;2023-02-13T17:31:02;21.37;;;12.63;;
2992;SDS011;1506;48.932;9.478;2023-02-13T17:33:30;15.87;;;10.47;;
2992;SDS011;1506;48.932;9.478;2023-02-13T17:36:00;15.23;;;10.00;;
2992;SDS011;1506;48.932;9.478;2023-02-13T17:38:27;15.37;;;9.13;;
2992;SDS011;1506;48.932;9.478;2023-02-13T17:40:55;18.03;;;10.07;;
2992;SDS011;1506;48.932;9.478;2023-02-13T17:43:23;23.37;;;13.03;;
2992;SDS011;1506;48.932;9.478;2023-02-13T17:45:52;20.37;;;11.73;;
2992;SDS011;1506;48.932;9.478;2023-02-13T17:48:19;22.33;;;11.80;;
2992;SDS011;1506;48.932;9.478;2023-02-13T17:50:47;21.70;;;10.17;;
2992;SDS011;1506;48.932;9.478;2023-02-13T17:53:18;22.23;;;12.50;;
2992;SDS011;1506;48.932;9.478;2023-02-13T17:55:51;33.10;;;13.07;;
2992;SDS011;1506;48.932;9.478;2023-02-13T17:58:18;31.50;;;12.50;;
2992;SDS011;1506;48.932;9.478;2023-02-13T18:00:46;34.27;;;17.40;;
2992;SDS011;1506;48.932;9.478;2023-02-13T18:03:14;27.30;;;13.27;;
2992;SDS011;1506;48.932;9.478;2023-02-13T18:05:41;28.83;;;13.83;;
2992;SDS011;1506;48.932;9.478;2023-02-13T18:08:10;25.20;;;14.60;;
2992;SDS011;1506;48.932;9.478;2023-02-13T18:10:38;19.97;;;11.63;;
2992;SDS011;1506;48.932;9.478;2023-02-13T18:13:05;29.97;;;15.17;;
2992;SDS011;1506;48.932;9.478;2023-02-13T18:15:34;31.90;;;14.70;;
2992;SDS011;1506;48.932;9.478;2023-02-13T18:18:06;23.10;;;13.80;;
2992;SDS011;1506;48.932;9.478;2023-02-13T18:20:34;24.63;;;14.13;;
2992;SDS011;1506;48.932;9.478;2023-02-13T18:23:02;20.60;;;13.43;;
2992;SDS011;1506;48.932;9.478;2023-02-13T18:25:29;26.57;;;13.60;;
2992;SDS011;1506;48.932;9.478;2023-02-13T18:27:57;24.67;;;14.27;;
2992;SDS011;1506;48.932;9.478;2023-02-13T18:30:24;32.17;;;17.10;;
2992;SDS011;1506;48.932;9.478;2023-02-13T18:32:52;40.00;;;20.47;;
2992;SDS011;1506;48.932;9.478;2023-02-13T18:35:21;69.13;;;31.37;;
2992;SDS011;1506;48.932;9.478;2023-02-13T18:37:49;50.13;;;23.10;;
2992;SDS011;1506;48.932;9.478;2023-02-13T18:40:17;118.27;;;43.70;;